Time,TemperatureF,DewpointF,PressureIn,WindDirection,WindDirectionDegrees,WindSpeedMPH,WindSpeedGustMPH,Humidity,HourlyPrecipIn,Conditions,Clouds,dailyrainin,SolarRadiationWatts/m^2,SoftwareType,DateUTC
2013-02-05 00:03:00,4.0,0.0,-100.00,WSW,255,4.0,7.0,84,0.00,,,0.01,0.000000,,2013-02-05 05:03:00,
2013-02-05 00:32:00,3.0,-1.0,-100.00,WSW,245,5.0,7.0,83,0.00,,,0.01,0.000000,,2013-02-05 05:32:00,
2013-02-05 00:42:00,3.0,-1.0,-100.00,WSW,245,5.0,7.0,83,0.00,,,0.01,0.000000,,2013-02-05 05:42:00,
2013-02-05 00:52:00,3.0,-1.0,-100.00,WSW,245,5.0,7.0,83,0.00,,,0.01,0.000000,,2013-02-05 05:52:00,
2013-02-05 01:02:00,3.0,-1.0,-100.00,WSW,245,5.0,7.0,83,0.00,,,0.01,0.000000,,2013-02-05 06:02:00,
2013-02-05 01:32:00,3.0,-2.0,-100.00,West,262,5.0,9.0,79,0.00,,,0.01,0.000000,,2013-02-05 06:32:00,
2013-02-05 01:42:00,3.0,-2.0,-100.00,West,262,5.0,9.0,79,0.00,,,0.01,0.000000,,2013-02-05 06:42:00,
2013-02-05 01:52:00,3.0,-2.0,-100.00,West,262,5.0,9.0,79,0.00,,,0.01,0.000000,,2013-02-05 06:52:00,
2013-02-05 02:01:00,3.0,-2.0,-100.00,West,262,5.0,9.0,79,0.00,,,0.01,0.000000,,2013-02-05 07:01:00,
2013-02-05 02:32:00,0.0,-5.0,-100.00,WSW,253,3.0,6.0,80,0.00,,,0.01,0.000000,,2013-02-05 07:32:00,
2013-02-05 02:42:00,0.0,-5.0,-100.00,WSW,253,3.0,6.0,80,0.00,,,0.01,0.000000,,2013-02-05 07:42:00,
2013-02-05 02:52:00,0.0,-5.0,-100.00,WSW,253,3.0,6.0,80,0.00,,,0.01,0.000000,,2013-02-05 07:52:00,
2013-02-05 03:01:00,0.0,-5.0,-100.00,WSW,253,3.0,6.0,80,0.00,,,0.01,0.000000,,2013-02-05 08:01:00,
2013-02-05 03:22:00,-2.0,-6.0,-100.00,WSW,253,2.0,4.0,81,0.00,,,0.01,0.000000,,2013-02-05 08:22:00,
2013-02-05 03:32:00,-2.0,-6.0,-100.00,WSW,253,2.0,4.0,81,0.00,,,0.01,0.000000,,2013-02-05 08:32:00,
2013-02-05 03:42:00,-2.0,-6.0,-100.00,WSW,253,2.0,4.0,81,0.00,,,0.01,0.000000,,2013-02-05 08:42:00,
2013-02-05 03:52:00,-2.0,-6.0,-100.00,WSW,253,2.0,4.0,81,0.00,,,0.01,0.000000,,2013-02-05 08:52:00,
2013-02-05 04:22:00,-1.0,-5.0,-100.00,ENE,61,1.0,3.0,81,0.00,,,0.01,0.000000,,2013-02-05 09:22:00,
2013-02-05 04:32:00,-1.0,-5.0,-100.00,ENE,61,1.0,3.0,81,0.00,,,0.01,0.000000,,2013-02-05 09:32:00,
2013-02-05 04:42:00,-1.0,-5.0,-100.00,ENE,61,1.0,3.0,81,0.00,,,0.01,0.000000,,2013-02-05 09:42:00,
2013-02-05 04:52:00,-1.0,-5.0,-100.00,ENE,61,1.0,3.0,81,0.00,,,0.01,0.000000,,2013-02-05 09:52:00,
2013-02-05 05:02:00,-1.0,-5.0,-100.00,ENE,61,1.0,3.0,81,0.00,,,0.01,0.000000,,2013-02-05 10:02:00,
2013-02-05 05:32:00,-3.0,-7.0,-100.00,NW,307,0.0,2.0,81,0.00,,,0.01,0.000000,,2013-02-05 10:32:00,
2013-02-05 05:42:00,-3.0,-7.0,-100.00,NW,307,0.0,2.0,81,0.00,,,0.01,0.000000,,2013-02-05 10:42:00,
2013-02-05 05:52:00,-3.0,-7.0,-100.00,NW,307,0.0,2.0,81,0.00,,,0.01,0.000000,,2013-02-05 10:52:00,
2013-02-05 06:32:00,5.0,2.0,-100.00,SSW,194,4.0,6.0,85,0.00,,,0.01,0.000000,,2013-02-05 11:32:00,
2013-02-05 06:42:00,5.0,2.0,-100.00,SSW,194,4.0,6.0,85,0.00,,,0.01,0.000000,,2013-02-05 11:42:00,
2013-02-05 06:52:00,5.0,2.0,-100.00,SSW,194,4.0,6.0,85,0.00,,,0.01,0.000000,,2013-02-05 11:52:00,
2013-02-05 07:02:00,5.0,2.0,-100.00,SSW,194,4.0,6.0,85,0.00,,,0.01,0.000000,,2013-02-05 12:02:00,
2013-02-05 07:32:00,5.0,1.0,-100.00,SSW,210,2.0,4.0,83,0.00,,,-99.99,0.000000,,2013-02-05 12:32:00,
2013-02-05 07:42:00,5.0,1.0,-100.00,SSW,210,2.0,4.0,83,0.00,,,-99.99,0.000000,,2013-02-05 12:42:00,
2013-02-05 07:52:00,5.0,1.0,-100.00,SSW,210,2.0,4.0,83,0.00,,,-99.99,0.000000,,2013-02-05 12:52:00,
2013-02-05 08:02:00,5.0,1.0,-100.00,SSW,210,2.0,4.0,83,0.00,,,-99.99,0.000000,,2013-02-05 13:02:00,
2013-02-05 12:33:00,16.0,12.0,-100.00,South,176,4.0,8.0,85,-99.99,,,-99.99,62.000000,,2013-02-05 17:33:00,
2013-02-05 12:42:00,16.0,12.0,-100.00,South,176,4.0,8.0,85,-99.99,,,-99.99,62.000000,,2013-02-05 17:42:00,
2013-02-05 12:52:00,16.0,12.0,-100.00,South,176,4.0,8.0,85,-99.99,,,-99.99,62.000000,,2013-02-05 17:52:00,
2013-02-05 13:02:00,16.0,12.0,-100.00,South,176,4.0,8.0,85,-99.99,,,-99.99,62.000000,,2013-02-05 18:02:00,
2013-02-05 13:32:00,20.0,16.0,-100.00,SSE,161,2.0,5.0,86,0.00,,,0.00,55.000000,,2013-02-05 18:32:00,
2013-02-05 13:42:00,20.0,16.0,-100.00,SSE,161,2.0,5.0,86,0.00,,,0.00,55.000000,,2013-02-05 18:42:00,
2013-02-05 13:52:00,20.0,16.0,-100.00,SSE,161,2.0,5.0,86,0.00,,,0.00,55.000000,,2013-02-05 18:52:00,
2013-02-05 14:02:00,20.0,16.0,-100.00,SSE,161,2.0,5.0,86,0.00,,,0.00,55.000000,,2013-02-05 19:02:00,
2013-02-05 14:32:00,20.0,16.0,-100.00,NNW,334,4.0,6.0,86,0.00,,,0.00,45.000000,,2013-02-05 19:32:00,
2013-02-05 14:42:00,20.0,16.0,-100.00,NNW,334,4.0,6.0,86,0.00,,,0.00,45.000000,,2013-02-05 19:42:00,
2013-02-05 14:52:00,20.0,16.0,-100.00,NNW,334,4.0,6.0,86,0.00,,,0.00,45.000000,,2013-02-05 19:52:00,
2013-02-05 15:02:00,20.0,16.0,-100.00,NNW,334,4.0,6.0,86,0.00,,,0.00,45.000000,,2013-02-05 20:02:00,
2013-02-05 15:32:00,18.0,15.0,-100.00,North,5,6.0,10.0,88,0.00,,,0.00,31.000000,,2013-02-05 20:32:00,
2013-02-05 15:42:00,18.0,15.0,-100.00,North,5,6.0,10.0,88,0.00,,,0.00,31.000000,,2013-02-05 20:42:00,
2013-02-05 15:52:00,18.0,15.0,-100.00,North,5,6.0,10.0,88,0.00,,,0.00,31.000000,,2013-02-05 20:52:00,
2013-02-05 16:02:00,18.0,15.0,-100.00,North,5,6.0,10.0,88,0.00,,,0.00,31.000000,,2013-02-05 21:02:00,
2013-02-05 16:22:00,19.0,14.0,-100.00,North,4,5.0,9.0,82,0.00,,,0.00,72.000000,,2013-02-05 21:22:00,
2013-02-05 16:32:00,19.0,14.0,-100.00,North,4,5.0,9.0,82,0.00,,,0.00,72.000000,,2013-02-05 21:32:00,
2013-02-05 16:42:00,19.0,14.0,-100.00,North,4,5.0,9.0,82,0.00,,,0.00,72.000000,,2013-02-05 21:42:00,
2013-02-05 16:52:00,19.0,14.0,-100.00,North,4,5.0,9.0,82,0.00,,,0.00,72.000000,,2013-02-05 21:52:00,
2013-02-05 17:01:00,19.0,14.0,-100.00,North,4,5.0,9.0,82,0.00,,,0.00,72.000000,,2013-02-05 22:01:00,
2013-02-05 17:22:00,17.0,14.0,-100.00,WSW,257,2.0,6.0,88,0.00,,,0.00,24.000000,,2013-02-05 22:22:00,
2013-02-05 17:32:00,17.0,14.0,-100.00,WSW,257,2.0,6.0,88,0.00,,,0.00,24.000000,,2013-02-05 22:32:00,
2013-02-05 17:42:00,17.0,14.0,-100.00,WSW,257,2.0,6.0,88,0.00,,,0.00,24.000000,,2013-02-05 22:42:00,
2013-02-05 17:52:00,17.0,14.0,-100.00,WSW,257,2.0,6.0,88,0.00,,,0.00,24.000000,,2013-02-05 22:52:00,
2013-02-05 18:02:00,17.0,14.0,-100.00,WSW,257,2.0,6.0,88,0.00,,,0.00,24.000000,,2013-02-05 23:02:00,
2013-02-05 18:22:00,17.0,15.0,-100.00,NNW,332,5.0,8.0,92,0.00,,,0.00,2.000000,,2013-02-05 23:22:00,
2013-02-05 18:33:00,17.0,15.0,-100.00,NNW,332,5.0,8.0,92,0.00,,,0.00,2.000000,,2013-02-05 23:33:00,
2013-02-05 18:42:00,17.0,15.0,-100.00,NNW,332,5.0,8.0,92,0.00,,,0.00,2.000000,,2013-02-05 23:42:00,
2013-02-05 18:53:00,17.0,15.0,-100.00,NNW,332,5.0,8.0,92,0.00,,,0.00,2.000000,,2013-02-05 23:53:00,
2013-02-05 19:02:00,17.0,15.0,-100.00,NNW,332,5.0,8.0,92,0.00,,,0.00,2.000000,,2013-02-06 00:02:00,
2013-02-05 19:32:00,17.0,15.0,-100.00,NNW,336,9.0,19.0,90,0.00,,,0.00,0.000000,,2013-02-06 00:32:00,
2013-02-05 19:42:00,17.0,15.0,-100.00,NNW,336,9.0,19.0,90,0.00,,,0.00,0.000000,,2013-02-06 00:42:00,
2013-02-05 19:52:00,17.0,15.0,-100.00,NNW,336,9.0,19.0,90,0.00,,,0.00,0.000000,,2013-02-06 00:52:00,
2013-02-05 20:02:00,17.0,15.0,-100.00,NNW,336,9.0,19.0,90,0.00,,,0.00,0.000000,,2013-02-06 01:02:00,
2013-02-05 20:33:00,16.0,14.0,-100.00,NNW,343,8.0,19.0,90,0.00,,,0.00,0.000000,,2013-02-06 01:33:00,
2013-02-05 20:42:00,16.0,14.0,-100.00,NNW,343,8.0,19.0,90,0.00,,,0.00,0.000000,,2013-02-06 01:42:00,
2013-02-05 20:53:00,16.0,14.0,-100.00,NNW,343,8.0,19.0,90,0.00,,,0.00,0.000000,,2013-02-06 01:53:00,
2013-02-05 21:02:00,16.0,14.0,-100.00,NNW,343,8.0,19.0,90,0.00,,,0.00,0.000000,,2013-02-06 02:02:00,
2013-02-05 21:32:00,14.0,11.0,-100.00,NNW,343,8.0,17.0,88,0.00,,,0.00,0.000000,,2013-02-06 02:32:00,
2013-02-05 21:42:00,14.0,11.0,-100.00,NNW,343,8.0,17.0,88,0.00,,,0.00,0.000000,,2013-02-06 02:42:00,
2013-02-05 21:53:00,14.0,11.0,-100.00,NNW,343,8.0,17.0,88,0.00,,,0.00,0.000000,,2013-02-06 02:53:00,
2013-02-05 22:03:00,14.0,11.0,-100.00,NNW,343,8.0,17.0,88,0.00,,,0.00,0.000000,,2013-02-06 03:03:00,
2013-02-05 22:33:00,13.0,10.0,-100.00,NNW,330,7.0,16.0,86,0.00,,,0.00,0.000000,,2013-02-06 03:33:00,
2013-02-05 22:42:00,13.0,10.0,-100.00,NNW,330,7.0,16.0,86,0.00,,,0.00,0.000000,,2013-02-06 03:42:00,
2013-02-05 22:53:00,13.0,10.0,-100.00,NNW,330,7.0,16.0,86,0.00,,,0.00,0.000000,,2013-02-06 03:53:00,
2013-02-05 23:02:00,13.0,10.0,-100.00,NNW,330,7.0,16.0,86,0.00,,,0.00,0.000000,,2013-02-06 04:02:00,
2013-02-05 23:32:00,13.0,10.0,-100.00,NNW,340,6.0,12.0,86,0.00,,,-99.99,0.000000,,2013-02-06 04:32:00,
2013-02-05 23:42:00,13.0,10.0,-100.00,NNW,340,6.0,12.0,86,0.00,,,-99.99,0.000000,,2013-02-06 04:42:00,
2013-02-05 23:52:00,13.0,10.0,-100.00,NNW,340,6.0,12.0,86,0.00,,,-99.99,0.000000,,2013-02-06 04:52:00,